sensor_id;sensor_type;location;lat;lon;timestamp;temperature;humidity
28837;DHT22;50669;50.982;11.022;2022-10-16T00:00:46;15.60;99.90
28837;DHT22;50669;50.982;11.022;2022-10-16T00:03:14;15.50;99.90
28837;DHT22;50669;50.982;11.022;2022-10-16T00:05:42;15.50;99.90
28837;DHT22;50669;50.982;11.022;2022-10-16T00:08:11;15.40;99.90
28837;DHT22;50669;50.982;11.022;2022-10-16T00:10:40;15.20;99.90
28837;DHT22;50669;50.982;11.022;2022-10-16T00:13:07;15.20;99.90
28837;DHT22;50669;50.982;11.022;2022-10-16T00:15:34;15.20;99.90
28837;DHT22;50669;50.982;11.022;2022-10-16T00:18:04;15.10;99.90
28837;DHT22;50669;50.982;11.022;2022-10-16T00:20:30;15.20;99.90
28837;DHT22;50669;50.982;11.022;2022-10-16T00:22:58;15.20;99.90
28837;DHT22;50669;50.982;11.022;2022-10-16T00:25:24;15.10;99.90
28837;DHT22;50669;50.982;11.022;2022-10-16T00:27:50;15.20;99.90
28837;DHT22;50669;50.982;11.022;2022-10-16T00:30:15;15.10;99.90
28837;DHT22;50669;50.982;11.022;2022-10-16T00:32:43;15.10;99.90
28837;DHT22;50669;50.982;11.022;2022-10-16T00:35:11;15.20;99.90
28837;DHT22;50669;50.982;11.022;2022-10-16T00:37:37;15.20;99.90
28837;DHT22;50669;50.982;11.022;2022-10-16T00:40:05;15.20;99.90
28837;DHT22;50669;50.982;11.022;2022-10-16T00:42:31;15.20;99.90
28837;DHT22;50669;50.982;11.022;2022-10-16T00:44:57;15.30;99.90
28837;DHT22;50669;50.982;11.022;2022-10-16T00:47:30;15.30;99.90
28837;DHT22;50669;50.982;11.022;2022-10-16T00:50:11;15.30;99.90
28837;DHT22;50669;50.982;11.022;2022-10-16T00:52:45;15.30;99.90
28837;DHT22;50669;50.982;11.022;2022-10-16T00:55:12;15.30;99.90
28837;DHT22;50669;50.982;11.022;2022-10-16T00:57:38;15.20;99.90
28837;DHT22;50669;50.982;11.022;2022-10-16T01:00:08;15.20;99.90
28837;DHT22;50669;50.982;11.022;2022-10-16T01:02:36;15.20;99.90
28837;DHT22;50669;50.982;11.022;2022-10-16T01:05:03;15.20;99.90
28837;DHT22;50669;50.982;11.022;2022-10-16T01:11:20;15.10;99.90
28837;DHT22;50669;50.982;11.022;2022-10-16T01:13:35;14.90;99.90
28837;DHT22;50669;50.982;11.022;2022-10-16T01:16:15;14.90;99.90
28837;DHT22;50669;50.982;11.022;2022-10-16T01:21:23;14.80;99.90
28837;DHT22;50669;50.982;11.022;2022-10-16T01:35:21;14.70;99.90
28837;DHT22;50669;50.982;11.022;2022-10-16T01:40:20;14.60;99.90
28837;DHT22;50669;50.982;11.022;2022-10-16T01:42:50;14.50;99.90
28837;DHT22;50669;50.982;11.022;2022-10-16T01:45:19;14.50;99.90
28837;DHT22;50669;50.982;11.022;2022-10-16T01:47:50;14.50;99.90
28837;DHT22;50669;50.982;11.022;2022-10-16T01:50:18;14.60;99.90
28837;DHT22;50669;50.982;11.022;2022-10-16T01:52:47;14.50;99.90
28837;DHT22;50669;50.982;11.022;2022-10-16T01:55:19;14.40;99.90
28837;DHT22;50669;50.982;11.022;2022-10-16T01:57:48;14.40;99.90
28837;DHT22;50669;50.982;11.022;2022-10-16T02:00:16;14.40;99.90
28837;DHT22;50669;50.982;11.022;2022-10-16T02:02:45;14.40;99.90
28837;DHT22;50669;50.982;11.022;2022-10-16T02:05:41;14.30;99.90
28837;DHT22;50669;50.982;11.022;2022-10-16T02:08:08;14.30;99.90
28837;DHT22;50669;50.982;11.022;2022-10-16T02:10:35;14.20;99.90
28837;DHT22;50669;50.982;11.022;2022-10-16T02:13:12;14.20;99.90
28837;DHT22;50669;50.982;11.022;2022-10-16T02:15:41;14.10;99.90
28837;DHT22;50669;50.982;11.022;2022-10-16T02:18:09;14.10;99.90
28837;DHT22;50669;50.982;11.022;2022-10-16T02:23:43;14.00;99.90
28837;DHT22;50669;50.982;11.022;2022-10-16T02:26:15;14.00;99.90
28837;DHT22;50669;50.982;11.022;2022-10-16T02:28:45;13.90;99.90
28837;DHT22;50669;50.982;11.022;2022-10-16T02:31:18;14.00;99.90
28837;DHT22;50669;50.982;11.022;2022-10-16T02:33:45;14.00;99.90
28837;DHT22;50669;50.982;11.022;2022-10-16T02:36:13;14.00;99.90
28837;DHT22;50669;50.982;11.022;2022-10-16T02:38:40;14.00;99.90
28837;DHT22;50669;50.982;11.022;2022-10-16T02:41:06;14.00;99.90
28837;DHT22;50669;50.982;11.022;2022-10-16T02:43:34;14.00;99.90
28837;DHT22;50669;50.982;11.022;2022-10-16T02:46:01;14.10;99.90
28837;DHT22;50669;50.982;11.022;2022-10-16T02:48:27;14.20;99.90
28837;DHT22;50669;50.982;11.022;2022-10-16T02:50:53;14.20;99.90
28837;DHT22;50669;50.982;11.022;2022-10-16T02:53:21;14.20;99.90
28837;DHT22;50669;50.982;11.022;2022-10-16T02:55:47;14.30;99.90
28837;DHT22;50669;50.982;11.022;2022-10-16T02:58:12;14.30;99.90
28837;DHT22;50669;50.982;11.022;2022-10-16T03:00:38;14.40;99.90
28837;DHT22;50669;50.982;11.022;2022-10-16T03:03:06;14.40;99.90
28837;DHT22;50669;50.982;11.022;2022-10-16T03:05:34;14.30;99.90
28837;DHT22;50669;50.982;11.022;2022-10-16T03:08:02;14.20;99.90
28837;DHT22;50669;50.982;11.022;2022-10-16T03:10:28;14.20;99.90
28837;DHT22;50669;50.982;11.022;2022-10-16T03:12:53;14.10;99.90
28837;DHT22;50669;50.982;11.022;2022-10-16T03:15:19;14.10;99.90
28837;DHT22;50669;50.982;11.022;2022-10-16T03:17:45;14.00;99.90
28837;DHT22;50669;50.982;11.022;2022-10-16T03:20:13;14.00;99.90
28837;DHT22;50669;50.982;11.022;2022-10-16T03:22:38;14.00;99.90
28837;DHT22;50669;50.982;11.022;2022-10-16T03:25:04;14.00;99.90
28837;DHT22;50669;50.982;11.022;2022-10-16T03:27:30;13.90;99.90
28837;DHT22;50669;50.982;11.022;2022-10-16T03:29:55;14.00;99.90
28837;DHT22;50669;50.982;11.022;2022-10-16T03:32:21;14.10;99.90
28837;DHT22;50669;50.982;11.022;2022-10-16T03:34:47;14.20;99.90
28837;DHT22;50669;50.982;11.022;2022-10-16T03:37:14;14.30;99.90
28837;DHT22;50669;50.982;11.022;2022-10-16T03:39:40;14.30;99.90
28837;DHT22;50669;50.982;11.022;2022-10-16T03:42:06;14.30;99.90
28837;DHT22;50669;50.982;11.022;2022-10-16T03:44:34;14.30;99.90
28837;DHT22;50669;50.982;11.022;2022-10-16T03:47:02;14.30;99.90
28837;DHT22;50669;50.982;11.022;2022-10-16T03:49:30;14.30;99.90
28837;DHT22;50669;50.982;11.022;2022-10-16T03:51:56;14.30;99.90
28837;DHT22;50669;50.982;11.022;2022-10-16T03:54:21;14.20;99.90
28837;DHT22;50669;50.982;11.022;2022-10-16T03:56:50;14.20;99.90
28837;DHT22;50669;50.982;11.022;2022-10-16T03:59:15;14.20;99.90
28837;DHT22;50669;50.982;11.022;2022-10-16T04:01:41;14.10;99.90
28837;DHT22;50669;50.982;11.022;2022-10-16T04:04:09;14.10;99.90
28837;DHT22;50669;50.982;11.022;2022-10-16T04:06:34;14.10;99.90
28837;DHT22;50669;50.982;11.022;2022-10-16T04:09:00;14.10;99.90
28837;DHT22;50669;50.982;11.022;2022-10-16T04:11:25;14.10;99.90
28837;DHT22;50669;50.982;11.022;2022-10-16T04:13:53;14.10;99.90
28837;DHT22;50669;50.982;11.022;2022-10-16T04:16:19;14.10;99.90
28837;DHT22;50669;50.982;11.022;2022-10-16T04:18:44;14.10;99.90
28837;DHT22;50669;50.982;11.022;2022-10-16T04:21:10;14.10;99.90
28837;DHT22;50669;50.982;11.022;2022-10-16T04:23:38;14.10;99.90
28837;DHT22;50669;50.982;11.022;2022-10-16T04:26:04;14.10;99.90
28837;DHT22;50669;50.982;11.022;2022-10-16T04:28:32;14.00;99.90
28837;DHT22;50669;50.982;11.022;2022-10-16T04:30:58;14.00;99.90
28837;DHT22;50669;50.982;11.022;2022-10-16T04:33:26;14.00;99.90
28837;DHT22;50669;50.982;11.022;2022-10-16T04:35:57;14.00;99.90
28837;DHT22;50669;50.982;11.022;2022-10-16T04:38:23;14.00;99.90
28837;DHT22;50669;50.982;11.022;2022-10-16T04:40:49;14.00;99.90
28837;DHT22;50669;50.982;11.022;2022-10-16T04:43:14;14.00;99.90
28837;DHT22;50669;50.982;11.022;2022-10-16T04:45:40;14.00;99.90
28837;DHT22;50669;50.982;11.022;2022-10-16T04:48:05;14.00;99.90
28837;DHT22;50669;50.982;11.022;2022-10-16T04:50:31;14.10;99.90
28837;DHT22;50669;50.982;11.022;2022-10-16T04:52:57;14.10;99.90
28837;DHT22;50669;50.982;11.022;2022-10-16T04:55:22;14.10;99.90
28837;DHT22;50669;50.982;11.022;2022-10-16T04:57:50;14.10;99.90
28837;DHT22;50669;50.982;11.022;2022-10-16T05:00:16;14.10;99.90
28837;DHT22;50669;50.982;11.022;2022-10-16T05:02:44;14.10;99.90
28837;DHT22;50669;50.982;11.022;2022-10-16T05:05:10;14.10;99.90
28837;DHT22;50669;50.982;11.022;2022-10-16T05:07:35;14.10;99.90
28837;DHT22;50669;50.982;11.022;2022-10-16T05:10:01;14.20;99.90
28837;DHT22;50669;50.982;11.022;2022-10-16T05:12:27;14.20;99.90
28837;DHT22;50669;50.982;11.022;2022-10-16T05:14:54;14.20;99.90
28837;DHT22;50669;50.982;11.022;2022-10-16T05:17:24;14.20;99.90
28837;DHT22;50669;50.982;11.022;2022-10-16T05:19:52;14.20;99.90
28837;DHT22;50669;50.982;11.022;2022-10-16T05:22:18;14.20;99.90
28837;DHT22;50669;50.982;11.022;2022-10-16T05:24:46;14.20;99.90
28837;DHT22;50669;50.982;11.022;2022-10-16T05:27:11;14.20;99.90
28837;DHT22;50669;50.982;11.022;2022-10-16T05:29:47;14.20;99.90
28837;DHT22;50669;50.982;11.022;2022-10-16T05:32:16;14.10;99.90
28837;DHT22;50669;50.982;11.022;2022-10-16T05:34:47;14.10;99.90
28837;DHT22;50669;50.982;11.022;2022-10-16T05:37:13;14.10;99.90
28837;DHT22;50669;50.982;11.022;2022-10-16T05:39:39;14.10;99.90
28837;DHT22;50669;50.982;11.022;2022-10-16T05:42:07;14.10;99.90
28837;DHT22;50669;50.982;11.022;2022-10-16T05:44:33;14.10;99.90
28837;DHT22;50669;50.982;11.022;2022-10-16T05:46:58;14.10;99.90
28837;DHT22;50669;50.982;11.022;2022-10-16T05:49:29;14.10;99.90
28837;DHT22;50669;50.982;11.022;2022-10-16T05:51:57;14.00;99.90
28837;DHT22;50669;50.982;11.022;2022-10-16T05:54:25;14.10;99.90
28837;DHT22;50669;50.982;11.022;2022-10-16T05:56:51;14.00;99.90
28837;DHT22;50669;50.982;11.022;2022-10-16T05:59:16;14.10;99.90
28837;DHT22;50669;50.982;11.022;2022-10-16T06:01:44;14.10;99.90
28837;DHT22;50669;50.982;11.022;2022-10-16T06:04:10;14.10;99.90
28837;DHT22;50669;50.982;11.022;2022-10-16T06:06:35;14.10;99.90
28837;DHT22;50669;50.982;11.022;2022-10-16T06:09:02;14.10;99.90
28837;DHT22;50669;50.982;11.022;2022-10-16T06:11:30;14.10;99.90
28837;DHT22;50669;50.982;11.022;2022-10-16T06:13:59;14.20;99.90
28837;DHT22;50669;50.982;11.022;2022-10-16T06:16:33;14.20;99.90
28837;DHT22;50669;50.982;11.022;2022-10-16T06:18:59;14.30;99.90
28837;DHT22;50669;50.982;11.022;2022-10-16T06:21:28;14.40;99.90
28837;DHT22;50669;50.982;11.022;2022-10-16T06:23:57;14.50;99.90
28837;DHT22;50669;50.982;11.022;2022-10-16T06:26:25;14.50;99.90
28837;DHT22;50669;50.982;11.022;2022-10-16T06:28:58;14.60;99.90
28837;DHT22;50669;50.982;11.022;2022-10-16T06:31:26;14.60;99.90
28837;DHT22;50669;50.982;11.022;2022-10-16T06:33:55;14.60;99.90
28837;DHT22;50669;50.982;11.022;2022-10-16T06:36:24;14.70;99.90
28837;DHT22;50669;50.982;11.022;2022-10-16T06:38:50;14.70;99.90
28837;DHT22;50669;50.982;11.022;2022-10-16T06:41:18;14.80;99.90
28837;DHT22;50669;50.982;11.022;2022-10-16T06:43:44;14.80;99.90
28837;DHT22;50669;50.982;11.022;2022-10-16T06:46:14;14.90;99.90
28837;DHT22;50669;50.982;11.022;2022-10-16T06:48:43;14.90;99.90
28837;DHT22;50669;50.982;11.022;2022-10-16T06:51:17;15.00;99.90
28837;DHT22;50669;50.982;11.022;2022-10-16T06:53:50;15.10;99.90
28837;DHT22;50669;50.982;11.022;2022-10-16T06:56:19;15.20;99.90
28837;DHT22;50669;50.982;11.022;2022-10-16T06:58:46;15.20;99.90
28837;DHT22;50669;50.982;11.022;2022-10-16T07:01:16;15.30;99.90
28837;DHT22;50669;50.982;11.022;2022-10-16T07:03:44;15.40;99.90
28837;DHT22;50669;50.982;11.022;2022-10-16T07:06:11;15.50;99.90
28837;DHT22;50669;50.982;11.022;2022-10-16T07:08:42;15.60;99.90
28837;DHT22;50669;50.982;11.022;2022-10-16T07:11:12;15.60;99.90
28837;DHT22;50669;50.982;11.022;2022-10-16T07:13:42;15.70;99.90
28837;DHT22;50669;50.982;11.022;2022-10-16T07:16:19;15.80;99.90
28837;DHT22;50669;50.982;11.022;2022-10-16T07:18:45;15.90;99.90
28837;DHT22;50669;50.982;11.022;2022-10-16T07:21:13;15.90;99.90
28837;DHT22;50669;50.982;11.022;2022-10-16T07:23:39;15.90;99.90
28837;DHT22;50669;50.982;11.022;2022-10-16T07:26:06;16.00;99.90
28837;DHT22;50669;50.982;11.022;2022-10-16T07:28:35;16.00;99.90
28837;DHT22;50669;50.982;11.022;2022-10-16T07:31:05;16.10;99.90
28837;DHT22;50669;50.982;11.022;2022-10-16T07:33:32;16.20;99.90
28837;DHT22;50669;50.982;11.022;2022-10-16T07:36:04;16.20;99.90
28837;DHT22;50669;50.982;11.022;2022-10-16T07:38:29;16.30;99.90
28837;DHT22;50669;50.982;11.022;2022-10-16T07:41:06;16.40;99.90
28837;DHT22;50669;50.982;11.022;2022-10-16T07:43:36;16.50;99.90
28837;DHT22;50669;50.982;11.022;2022-10-16T07:46:02;16.60;99.90
28837;DHT22;50669;50.982;11.022;2022-10-16T07:48:30;16.60;99.90
28837;DHT22;50669;50.982;11.022;2022-10-16T07:51:04;16.70;99.90
28837;DHT22;50669;50.982;11.022;2022-10-16T07:53:30;16.80;99.90
28837;DHT22;50669;50.982;11.022;2022-10-16T07:56:00;16.80;99.90
28837;DHT22;50669;50.982;11.022;2022-10-16T07:58:29;16.90;99.90
28837;DHT22;50669;50.982;11.022;2022-10-16T08:00:56;17.00;99.90
28837;DHT22;50669;50.982;11.022;2022-10-16T08:03:25;17.00;99.90
28837;DHT22;50669;50.982;11.022;2022-10-16T08:05:51;17.10;99.90
28837;DHT22;50669;50.982;11.022;2022-10-16T08:08:17;17.10;99.90
28837;DHT22;50669;50.982;11.022;2022-10-16T08:10:45;17.20;99.90
28837;DHT22;50669;50.982;11.022;2022-10-16T08:13:18;17.30;99.90
28837;DHT22;50669;50.982;11.022;2022-10-16T08:15:44;17.40;99.90
28837;DHT22;50669;50.982;11.022;2022-10-16T08:18:11;17.50;99.90
28837;DHT22;50669;50.982;11.022;2022-10-16T08:20:41;17.60;99.90
28837;DHT22;50669;50.982;11.022;2022-10-16T08:23:07;17.70;99.90
28837;DHT22;50669;50.982;11.022;2022-10-16T08:25:37;17.70;99.90
28837;DHT22;50669;50.982;11.022;2022-10-16T08:28:07;17.80;99.90
28837;DHT22;50669;50.982;11.022;2022-10-16T08:30:34;17.90;99.90
28837;DHT22;50669;50.982;11.022;2022-10-16T08:33:00;17.90;99.90
28837;DHT22;50669;50.982;11.022;2022-10-16T08:35:25;17.90;99.90
28837;DHT22;50669;50.982;11.022;2022-10-16T08:37:54;18.00;99.90
28837;DHT22;50669;50.982;11.022;2022-10-16T08:40:24;18.00;99.90
28837;DHT22;50669;50.982;11.022;2022-10-16T08:43:26;18.20;99.90
28837;DHT22;50669;50.982;11.022;2022-10-16T08:51:10;18.60;99.90
28837;DHT22;50669;50.982;11.022;2022-10-16T08:53:49;18.60;99.90
28837;DHT22;50669;50.982;11.022;2022-10-16T08:56:17;18.80;99.90
28837;DHT22;50669;50.982;11.022;2022-10-16T08:58:46;18.90;99.90
28837;DHT22;50669;50.982;11.022;2022-10-16T09:01:16;19.00;99.90
28837;DHT22;50669;50.982;11.022;2022-10-16T09:14:28;19.20;99.90
28837;DHT22;50669;50.982;11.022;2022-10-16T09:19:53;19.20;99.90
28837;DHT22;50669;50.982;11.022;2022-10-16T09:22:22;19.10;99.90
28837;DHT22;50669;50.982;11.022;2022-10-16T09:24:51;19.00;99.90
28837;DHT22;50669;50.982;11.022;2022-10-16T09:27:16;19.00;99.90
28837;DHT22;50669;50.982;11.022;2022-10-16T09:29:42;19.00;99.90
28837;DHT22;50669;50.982;11.022;2022-10-16T09:32:17;19.00;99.90
28837;DHT22;50669;50.982;11.022;2022-10-16T09:34:53;19.20;99.90
28837;DHT22;50669;50.982;11.022;2022-10-16T09:37:23;19.30;99.90
28837;DHT22;50669;50.982;11.022;2022-10-16T09:39:54;19.30;99.90
28837;DHT22;50669;50.982;11.022;2022-10-16T09:42:23;19.40;99.90
28837;DHT22;50669;50.982;11.022;2022-10-16T09:44:56;19.50;99.90
28837;DHT22;50669;50.982;11.022;2022-10-16T09:47:26;19.60;99.90
28837;DHT22;50669;50.982;11.022;2022-10-16T09:49:59;19.70;99.90
28837;DHT22;50669;50.982;11.022;2022-10-16T09:52:28;19.70;99.90
28837;DHT22;50669;50.982;11.022;2022-10-16T09:54:56;19.70;99.90
28837;DHT22;50669;50.982;11.022;2022-10-16T09:57:23;19.70;99.90
28837;DHT22;50669;50.982;11.022;2022-10-16T09:59:51;19.70;99.90
28837;DHT22;50669;50.982;11.022;2022-10-16T10:02:19;19.70;99.90
28837;DHT22;50669;50.982;11.022;2022-10-16T10:04:53;19.60;99.90
28837;DHT22;50669;50.982;11.022;2022-10-16T10:07:26;19.70;99.90
28837;DHT22;50669;50.982;11.022;2022-10-16T10:09:52;19.70;99.90
28837;DHT22;50669;50.982;11.022;2022-10-16T10:12:24;19.60;99.90
28837;DHT22;50669;50.982;11.022;2022-10-16T10:14:52;19.60;99.90
28837;DHT22;50669;50.982;11.022;2022-10-16T10:17:23;19.60;99.90
28837;DHT22;50669;50.982;11.022;2022-10-16T10:19:54;19.70;99.90
28837;DHT22;50669;50.982;11.022;2022-10-16T10:22:43;19.70;99.90
28837;DHT22;50669;50.982;11.022;2022-10-16T10:30:34;19.70;99.90
28837;DHT22;50669;50.982;11.022;2022-10-16T10:41:11;19.80;99.90
28837;DHT22;50669;50.982;11.022;2022-10-16T10:54:28;19.60;99.90
28837;DHT22;50669;50.982;11.022;2022-10-16T10:59:46;19.60;99.90
28837;DHT22;50669;50.982;11.022;2022-10-16T11:02:22;19.50;99.90
28837;DHT22;50669;50.982;11.022;2022-10-16T11:04:58;19.40;99.90
28837;DHT22;50669;50.982;11.022;2022-10-16T11:07:32;19.40;99.90
28837;DHT22;50669;50.982;11.022;2022-10-16T11:11:13;19.30;99.90
28837;DHT22;50669;50.982;11.022;2022-10-16T11:13:26;19.30;99.90
28837;DHT22;50669;50.982;11.022;2022-10-16T11:15:58;19.30;99.90
28837;DHT22;50669;50.982;11.022;2022-10-16T11:21:11;19.30;99.90
28837;DHT22;50669;50.982;11.022;2022-10-16T11:24:13;19.30;99.90
28837;DHT22;50669;50.982;11.022;2022-10-16T11:26:42;19.40;99.90
28837;DHT22;50669;50.982;11.022;2022-10-16T11:29:26;19.30;99.90
28837;DHT22;50669;50.982;11.022;2022-10-16T11:31:59;19.20;99.90
28837;DHT22;50669;50.982;11.022;2022-10-16T11:34:31;19.10;99.90
28837;DHT22;50669;50.982;11.022;2022-10-16T11:37:18;19.10;99.90
28837;DHT22;50669;50.982;11.022;2022-10-16T11:39:47;19.20;99.90
28837;DHT22;50669;50.982;11.022;2022-10-16T11:42:30;19.20;99.90
28837;DHT22;50669;50.982;11.022;2022-10-16T11:44:59;19.20;99.90
28837;DHT22;50669;50.982;11.022;2022-10-16T11:52:58;19.30;99.90
28837;DHT22;50669;50.982;11.022;2022-10-16T11:55:40;19.20;99.90
28837;DHT22;50669;50.982;11.022;2022-10-16T12:08:49;19.40;99.90
28837;DHT22;50669;50.982;11.022;2022-10-16T12:11:38;19.60;99.90
28837;DHT22;50669;50.982;11.022;2022-10-16T12:17:01;19.60;99.90
28837;DHT22;50669;50.982;11.022;2022-10-16T12:19:29;19.50;99.90
28837;DHT22;50669;50.982;11.022;2022-10-16T12:22:00;19.50;99.90
28837;DHT22;50669;50.982;11.022;2022-10-16T12:27:03;23.00;99.90
28837;DHT22;50669;50.982;11.022;2022-10-16T12:31:55;25.70;99.90
28837;DHT22;50669;50.982;11.022;2022-10-16T12:34:42;27.30;99.90
28837;DHT22;50669;50.982;11.022;2022-10-16T12:37:35;28.20;99.90
28837;DHT22;50669;50.982;11.022;2022-10-16T12:42:50;28.10;99.90
28837;DHT22;50669;50.982;11.022;2022-10-16T12:45:26;27.30;99.90
28837;DHT22;50669;50.982;11.022;2022-10-16T12:47:56;25.90;99.90
28837;DHT22;50669;50.982;11.022;2022-10-16T12:50:37;24.90;99.90
28837;DHT22;50669;50.982;11.022;2022-10-16T12:53:23;24.70;99.90
28837;DHT22;50669;50.982;11.022;2022-10-16T12:56:09;24.80;99.90
28837;DHT22;50669;50.982;11.022;2022-10-16T13:01:12;25.80;99.90
28837;DHT22;50669;50.982;11.022;2022-10-16T13:04:22;26.50;99.90
28837;DHT22;50669;50.982;11.022;2022-10-16T13:06:51;26.20;99.90
28837;DHT22;50669;50.982;11.022;2022-10-16T13:15:22;23.00;99.90
28837;DHT22;50669;50.982;11.022;2022-10-16T13:21:20;23.90;99.90
28837;DHT22;50669;50.982;11.022;2022-10-16T13:26:56;24.20;99.90
28837;DHT22;50669;50.982;11.022;2022-10-16T13:29:31;23.80;99.90
28837;DHT22;50669;50.982;11.022;2022-10-16T13:31:58;23.00;99.90
28837;DHT22;50669;50.982;11.022;2022-10-16T13:34:29;22.50;99.90
28837;DHT22;50669;50.982;11.022;2022-10-16T13:36:57;22.30;99.90
28837;DHT22;50669;50.982;11.022;2022-10-16T13:39:26;22.10;99.90
28837;DHT22;50669;50.982;11.022;2022-10-16T13:42:11;22.00;99.90
28837;DHT22;50669;50.982;11.022;2022-10-16T13:44:46;21.90;99.90
28837;DHT22;50669;50.982;11.022;2022-10-16T13:47:25;21.90;99.90
28837;DHT22;50669;50.982;11.022;2022-10-16T13:50:12;21.90;99.90
28837;DHT22;50669;50.982;11.022;2022-10-16T13:52:43;21.90;99.90
28837;DHT22;50669;50.982;11.022;2022-10-16T13:55:17;21.80;99.90
28837;DHT22;50669;50.982;11.022;2022-10-16T13:57:47;21.80;99.90
28837;DHT22;50669;50.982;11.022;2022-10-16T14:00:26;21.80;99.90
28837;DHT22;50669;50.982;11.022;2022-10-16T14:03:18;21.70;99.90
28837;DHT22;50669;50.982;11.022;2022-10-16T14:05:57;21.50;99.90
28837;DHT22;50669;50.982;11.022;2022-10-16T14:08:28;21.30;99.90
28837;DHT22;50669;50.982;11.022;2022-10-16T14:10:59;21.10;99.90
28837;DHT22;50669;50.982;11.022;2022-10-16T14:13:43;21.20;99.90
28837;DHT22;50669;50.982;11.022;2022-10-16T14:16:22;21.30;99.90
28837;DHT22;50669;50.982;11.022;2022-10-16T14:19:04;21.30;99.90
28837;DHT22;50669;50.982;11.022;2022-10-16T14:21:34;21.20;99.90
28837;DHT22;50669;50.982;11.022;2022-10-16T14:24:13;21.10;99.90
28837;DHT22;50669;50.982;11.022;2022-10-16T14:26:45;21.10;99.90
28837;DHT22;50669;50.982;11.022;2022-10-16T14:29:15;21.00;99.90
28837;DHT22;50669;50.982;11.022;2022-10-16T14:31:43;20.90;99.90
28837;DHT22;50669;50.982;11.022;2022-10-16T14:34:33;20.90;99.90
28837;DHT22;50669;50.982;11.022;2022-10-16T14:37:22;20.80;99.90
28837;DHT22;50669;50.982;11.022;2022-10-16T14:39:50;20.90;99.90
28837;DHT22;50669;50.982;11.022;2022-10-16T14:42:20;20.90;99.90
28837;DHT22;50669;50.982;11.022;2022-10-16T14:44:46;20.80;99.90
28837;DHT22;50669;50.982;11.022;2022-10-16T14:47:18;20.60;99.90
28837;DHT22;50669;50.982;11.022;2022-10-16T14:49:50;20.50;99.90
28837;DHT22;50669;50.982;11.022;2022-10-16T14:52:16;20.50;99.90
28837;DHT22;50669;50.982;11.022;2022-10-16T14:54:50;20.50;99.90
28837;DHT22;50669;50.982;11.022;2022-10-16T14:57:23;20.50;99.90
28837;DHT22;50669;50.982;11.022;2022-10-16T14:59:50;20.50;99.90
28837;DHT22;50669;50.982;11.022;2022-10-16T15:02:30;20.50;99.90
28837;DHT22;50669;50.982;11.022;2022-10-16T15:04:57;20.40;99.90
28837;DHT22;50669;50.982;11.022;2022-10-16T15:07:25;20.30;99.90
28837;DHT22;50669;50.982;11.022;2022-10-16T15:09:51;20.30;99.90
28837;DHT22;50669;50.982;11.022;2022-10-16T15:12:16;20.30;99.90
28837;DHT22;50669;50.982;11.022;2022-10-16T15:14:42;20.30;99.90
28837;DHT22;50669;50.982;11.022;2022-10-16T15:17:11;20.20;99.90
28837;DHT22;50669;50.982;11.022;2022-10-16T15:19:37;20.20;99.90
28837;DHT22;50669;50.982;11.022;2022-10-16T15:22:03;20.20;99.90
28837;DHT22;50669;50.982;11.022;2022-10-16T15:24:29;20.20;99.90
28837;DHT22;50669;50.982;11.022;2022-10-16T15:26:55;20.20;99.90
28837;DHT22;50669;50.982;11.022;2022-10-16T15:29:21;20.10;99.90
28837;DHT22;50669;50.982;11.022;2022-10-16T15:31:46;20.10;99.90
28837;DHT22;50669;50.982;11.022;2022-10-16T15:34:15;20.10;99.90
28837;DHT22;50669;50.982;11.022;2022-10-16T15:36:41;20.00;99.90
28837;DHT22;50669;50.982;11.022;2022-10-16T15:39:15;19.90;99.90
28837;DHT22;50669;50.982;11.022;2022-10-16T15:41:44;19.90;99.90
28837;DHT22;50669;50.982;11.022;2022-10-16T15:44:10;19.80;99.90
28837;DHT22;50669;50.982;11.022;2022-10-16T15:46:36;19.80;99.90
28837;DHT22;50669;50.982;11.022;2022-10-16T15:49:03;19.70;99.90
28837;DHT22;50669;50.982;11.022;2022-10-16T15:54:03;19.60;99.90
28837;DHT22;50669;50.982;11.022;2022-10-16T15:56:31;19.50;99.90
28837;DHT22;50669;50.982;11.022;2022-10-16T15:58:59;19.50;99.90
28837;DHT22;50669;50.982;11.022;2022-10-16T16:01:26;19.30;99.90
28837;DHT22;50669;50.982;11.022;2022-10-16T16:03:59;19.30;99.90
28837;DHT22;50669;50.982;11.022;2022-10-16T16:06:25;19.20;99.90
28837;DHT22;50669;50.982;11.022;2022-10-16T16:08:51;19.10;99.90
28837;DHT22;50669;50.982;11.022;2022-10-16T16:11:21;19.00;99.90
28837;DHT22;50669;50.982;11.022;2022-10-16T16:13:49;19.00;99.90
28837;DHT22;50669;50.982;11.022;2022-10-16T16:16:15;19.00;99.90
28837;DHT22;50669;50.982;11.022;2022-10-16T16:18:42;18.90;99.90
28837;DHT22;50669;50.982;11.022;2022-10-16T16:21:10;18.80;99.90
28837;DHT22;50669;50.982;11.022;2022-10-16T16:23:38;18.80;99.90
28837;DHT22;50669;50.982;11.022;2022-10-16T16:28:38;18.60;99.90
28837;DHT22;50669;50.982;11.022;2022-10-16T16:31:04;18.60;99.90
28837;DHT22;50669;50.982;11.022;2022-10-16T16:33:32;18.50;99.90
28837;DHT22;50669;50.982;11.022;2022-10-16T16:36:04;18.40;99.90
28837;DHT22;50669;50.982;11.022;2022-10-16T16:38:32;18.30;99.90
28837;DHT22;50669;50.982;11.022;2022-10-16T16:40:57;18.20;99.90
28837;DHT22;50669;50.982;11.022;2022-10-16T16:43:27;18.10;99.90
28837;DHT22;50669;50.982;11.022;2022-10-16T16:45:53;18.10;99.90
28837;DHT22;50669;50.982;11.022;2022-10-16T16:48:20;18.00;99.90
28837;DHT22;50669;50.982;11.022;2022-10-16T16:50:45;18.00;99.90
28837;DHT22;50669;50.982;11.022;2022-10-16T16:53:15;17.90;99.90
28837;DHT22;50669;50.982;11.022;2022-10-16T16:55:44;17.90;99.90
28837;DHT22;50669;50.982;11.022;2022-10-16T16:58:12;17.90;99.90
28837;DHT22;50669;50.982;11.022;2022-10-16T17:00:45;17.90;99.90
28837;DHT22;50669;50.982;11.022;2022-10-16T17:03:10;17.90;99.90
28837;DHT22;50669;50.982;11.022;2022-10-16T17:05:38;17.80;99.90
28837;DHT22;50669;50.982;11.022;2022-10-16T17:08:06;17.90;99.90
28837;DHT22;50669;50.982;11.022;2022-10-16T17:10:42;17.90;99.90
28837;DHT22;50669;50.982;11.022;2022-10-16T17:13:08;17.90;99.90
28837;DHT22;50669;50.982;11.022;2022-10-16T17:15:33;17.90;99.90
28837;DHT22;50669;50.982;11.022;2022-10-16T17:17:59;17.90;99.90
28837;DHT22;50669;50.982;11.022;2022-10-16T17:20:25;17.90;99.90
28837;DHT22;50669;50.982;11.022;2022-10-16T17:22:52;17.90;99.90
28837;DHT22;50669;50.982;11.022;2022-10-16T17:25:21;17.80;99.90
28837;DHT22;50669;50.982;11.022;2022-10-16T17:27:46;17.80;99.90
28837;DHT22;50669;50.982;11.022;2022-10-16T17:30:12;17.80;99.90